sensor_id;sensor_type;location;lat;lon;timestamp;temperature;humidity
30764;DHT22;17497;51.476;7.770;2024-03-07T00:00:28;5.20;99.90
30764;DHT22;17497;51.476;7.770;2024-03-07T00:02:55;5.20;99.90
30764;DHT22;17497;51.476;7.770;2024-03-07T00:05:21;5.10;99.90
30764;DHT22;17497;51.476;7.770;2024-03-07T00:07:52;5.10;99.90
30764;DHT22;17497;51.476;7.770;2024-03-07T00:10:18;5.10;99.90
30764;DHT22;17497;51.476;7.770;2024-03-07T00:12:45;5.00;99.90
30764;DHT22;17497;51.476;7.770;2024-03-07T00:15:12;5.10;99.90
30764;DHT22;17497;51.476;7.770;2024-03-07T00:17:39;5.00;99.90
30764;DHT22;17497;51.476;7.770;2024-03-07T00:20:06;4.90;99.90
30764;DHT22;17497;51.476;7.770;2024-03-07T00:22:41;4.80;99.90
30764;DHT22;17497;51.476;7.770;2024-03-07T00:25:08;4.80;99.90
30764;DHT22;17497;51.476;7.770;2024-03-07T00:27:36;4.70;99.90
30764;DHT22;17497;51.476;7.770;2024-03-07T00:30:03;4.70;99.90
30764;DHT22;17497;51.476;7.770;2024-03-07T00:32:31;4.60;99.90
30764;DHT22;17497;51.476;7.770;2024-03-07T00:35:02;4.60;99.90
30764;DHT22;17497;51.476;7.770;2024-03-07T00:37:31;4.50;99.90
30764;DHT22;17497;51.476;7.770;2024-03-07T00:39:58;4.50;99.90
30764;DHT22;17497;51.476;7.770;2024-03-07T00:42:25;4.50;99.90
30764;DHT22;17497;51.476;7.770;2024-03-07T00:44:52;4.40;99.90
30764;DHT22;17497;51.476;7.770;2024-03-07T00:47:19;4.40;99.90
30764;DHT22;17497;51.476;7.770;2024-03-07T00:49:45;4.40;99.90
30764;DHT22;17497;51.476;7.770;2024-03-07T00:52:13;4.40;99.90
30764;DHT22;17497;51.476;7.770;2024-03-07T00:54:39;4.40;99.90
30764;DHT22;17497;51.476;7.770;2024-03-07T00:57:07;4.40;99.90
30764;DHT22;17497;51.476;7.770;2024-03-07T00:59:34;4.40;99.90
30764;DHT22;17497;51.476;7.770;2024-03-07T01:02:00;4.40;99.90
30764;DHT22;17497;51.476;7.770;2024-03-07T01:04:27;4.40;99.90
30764;DHT22;17497;51.476;7.770;2024-03-07T01:06:57;4.40;99.90
30764;DHT22;17497;51.476;7.770;2024-03-07T01:09:27;4.40;99.90
30764;DHT22;17497;51.476;7.770;2024-03-07T01:11:56;4.40;99.90
30764;DHT22;17497;51.476;7.770;2024-03-07T01:14:25;4.40;99.90
30764;DHT22;17497;51.476;7.770;2024-03-07T01:16:52;4.40;99.90
30764;DHT22;17497;51.476;7.770;2024-03-07T01:19:18;4.30;99.90
30764;DHT22;17497;51.476;7.770;2024-03-07T01:21:45;4.30;99.90
30764;DHT22;17497;51.476;7.770;2024-03-07T01:24:11;4.20;99.90
30764;DHT22;17497;51.476;7.770;2024-03-07T01:26:38;4.20;99.90
30764;DHT22;17497;51.476;7.770;2024-03-07T01:29:05;4.10;99.90
30764;DHT22;17497;51.476;7.770;2024-03-07T01:31:33;4.10;99.90
30764;DHT22;17497;51.476;7.770;2024-03-07T01:34:00;4.10;99.90
30764;DHT22;17497;51.476;7.770;2024-03-07T01:36:27;4.10;99.90
30764;DHT22;17497;51.476;7.770;2024-03-07T01:38:53;4.00;99.90
30764;DHT22;17497;51.476;7.770;2024-03-07T01:41:20;4.00;99.90
30764;DHT22;17497;51.476;7.770;2024-03-07T01:43:47;4.10;99.90
30764;DHT22;17497;51.476;7.770;2024-03-07T01:46:13;4.10;99.90
30764;DHT22;17497;51.476;7.770;2024-03-07T01:48:40;4.10;99.90
30764;DHT22;17497;51.476;7.770;2024-03-07T01:51:07;4.10;99.90
30764;DHT22;17497;51.476;7.770;2024-03-07T01:53:35;4.10;99.90
30764;DHT22;17497;51.476;7.770;2024-03-07T01:56:01;4.10;99.90
30764;DHT22;17497;51.476;7.770;2024-03-07T01:58:29;4.10;99.90
30764;DHT22;17497;51.476;7.770;2024-03-07T02:00:55;4.10;99.90
30764;DHT22;17497;51.476;7.770;2024-03-07T02:03:22;4.10;99.90
30764;DHT22;17497;51.476;7.770;2024-03-07T02:05:49;4.10;99.90
30764;DHT22;17497;51.476;7.770;2024-03-07T02:08:18;4.10;99.90
30764;DHT22;17497;51.476;7.770;2024-03-07T02:10:46;4.00;99.90
30764;DHT22;17497;51.476;7.770;2024-03-07T02:13:12;4.00;99.90
30764;DHT22;17497;51.476;7.770;2024-03-07T02:15:39;3.90;99.90
30764;DHT22;17497;51.476;7.770;2024-03-07T02:18:06;3.90;99.90
30764;DHT22;17497;51.476;7.770;2024-03-07T02:20:33;3.90;99.90
30764;DHT22;17497;51.476;7.770;2024-03-07T02:22:59;3.80;99.90
30764;DHT22;17497;51.476;7.770;2024-03-07T02:25:26;3.80;99.90
30764;DHT22;17497;51.476;7.770;2024-03-07T02:27:54;3.70;99.90
30764;DHT22;17497;51.476;7.770;2024-03-07T02:30:20;3.70;99.90
30764;DHT22;17497;51.476;7.770;2024-03-07T02:32:47;3.70;99.90
30764;DHT22;17497;51.476;7.770;2024-03-07T02:35:21;3.60;99.90
30764;DHT22;17497;51.476;7.770;2024-03-07T02:37:48;3.60;99.90
30764;DHT22;17497;51.476;7.770;2024-03-07T02:40:14;3.50;99.90
30764;DHT22;17497;51.476;7.770;2024-03-07T02:42:43;3.50;99.90
30764;DHT22;17497;51.476;7.770;2024-03-07T02:45:09;3.40;99.90
30764;DHT22;17497;51.476;7.770;2024-03-07T02:47:39;3.40;99.90
30764;DHT22;17497;51.476;7.770;2024-03-07T02:50:08;3.40;99.90
30764;DHT22;17497;51.476;7.770;2024-03-07T02:52:35;3.30;99.90
30764;DHT22;17497;51.476;7.770;2024-03-07T02:55:02;3.30;99.90
30764;DHT22;17497;51.476;7.770;2024-03-07T02:57:31;3.20;99.90
30764;DHT22;17497;51.476;7.770;2024-03-07T02:59:58;3.20;99.90
30764;DHT22;17497;51.476;7.770;2024-03-07T03:02:24;3.20;99.90
30764;DHT22;17497;51.476;7.770;2024-03-07T03:04:51;3.20;99.90
30764;DHT22;17497;51.476;7.770;2024-03-07T03:07:18;3.20;99.90
30764;DHT22;17497;51.476;7.770;2024-03-07T03:09:45;3.10;99.90
30764;DHT22;17497;51.476;7.770;2024-03-07T03:12:12;3.10;99.90
30764;DHT22;17497;51.476;7.770;2024-03-07T03:14:39;3.10;99.90
30764;DHT22;17497;51.476;7.770;2024-03-07T03:17:06;3.10;99.90
30764;DHT22;17497;51.476;7.770;2024-03-07T03:19:35;3.10;99.90
30764;DHT22;17497;51.476;7.770;2024-03-07T03:22:02;3.10;99.90
30764;DHT22;17497;51.476;7.770;2024-03-07T03:24:30;3.10;99.90
30764;DHT22;17497;51.476;7.770;2024-03-07T03:26:57;3.10;99.90
30764;DHT22;17497;51.476;7.770;2024-03-07T03:29:24;3.10;99.90
30764;DHT22;17497;51.476;7.770;2024-03-07T03:31:50;3.10;99.90
30764;DHT22;17497;51.476;7.770;2024-03-07T03:34:17;3.10;99.90
30764;DHT22;17497;51.476;7.770;2024-03-07T03:36:43;3.20;99.90
30764;DHT22;17497;51.476;7.770;2024-03-07T03:39:10;3.20;99.90
30764;DHT22;17497;51.476;7.770;2024-03-07T03:41:39;3.30;99.90
30764;DHT22;17497;51.476;7.770;2024-03-07T03:44:06;3.30;99.90
30764;DHT22;17497;51.476;7.770;2024-03-07T03:46:33;3.30;99.90
30764;DHT22;17497;51.476;7.770;2024-03-07T03:48:59;3.30;99.90
30764;DHT22;17497;51.476;7.770;2024-03-07T03:51:26;3.30;99.90
30764;DHT22;17497;51.476;7.770;2024-03-07T03:53:53;3.20;99.90
30764;DHT22;17497;51.476;7.770;2024-03-07T03:56:20;3.20;99.90
30764;DHT22;17497;51.476;7.770;2024-03-07T03:58:46;3.20;99.90
30764;DHT22;17497;51.476;7.770;2024-03-07T04:01:13;3.20;99.90
30764;DHT22;17497;51.476;7.770;2024-03-07T04:03:41;3.20;99.90
30764;DHT22;17497;51.476;7.770;2024-03-07T04:06:08;3.20;99.90
30764;DHT22;17497;51.476;7.770;2024-03-07T04:08:35;3.10;99.90
30764;DHT22;17497;51.476;7.770;2024-03-07T04:11:06;3.10;99.90
30764;DHT22;17497;51.476;7.770;2024-03-07T04:13:36;3.10;99.90
30764;DHT22;17497;51.476;7.770;2024-03-07T04:16:02;3.10;99.90
30764;DHT22;17497;51.476;7.770;2024-03-07T04:18:29;3.10;99.90
30764;DHT22;17497;51.476;7.770;2024-03-07T04:20:56;3.10;99.90
30764;DHT22;17497;51.476;7.770;2024-03-07T04:23:23;3.10;99.90
30764;DHT22;17497;51.476;7.770;2024-03-07T04:25:50;3.10;99.90
30764;DHT22;17497;51.476;7.770;2024-03-07T04:28:17;3.00;99.90
30764;DHT22;17497;51.476;7.770;2024-03-07T04:30:45;3.10;99.90
30764;DHT22;17497;51.476;7.770;2024-03-07T04:33:12;3.10;99.90
30764;DHT22;17497;51.476;7.770;2024-03-07T04:35:39;3.10;99.90
30764;DHT22;17497;51.476;7.770;2024-03-07T04:38:05;3.00;99.90
30764;DHT22;17497;51.476;7.770;2024-03-07T04:40:38;3.00;99.90
30764;DHT22;17497;51.476;7.770;2024-03-07T04:43:05;3.00;99.90
30764;DHT22;17497;51.476;7.770;2024-03-07T04:45:32;3.00;99.90
30764;DHT22;17497;51.476;7.770;2024-03-07T04:47:58;2.90;99.90
30764;DHT22;17497;51.476;7.770;2024-03-07T04:50:25;2.90;99.90
30764;DHT22;17497;51.476;7.770;2024-03-07T04:52:52;2.90;99.90
30764;DHT22;17497;51.476;7.770;2024-03-07T04:55:19;2.90;99.90
30764;DHT22;17497;51.476;7.770;2024-03-07T04:57:46;2.90;99.90
30764;DHT22;17497;51.476;7.770;2024-03-07T05:00:13;2.90;99.90
30764;DHT22;17497;51.476;7.770;2024-03-07T05:02:42;2.80;99.90
30764;DHT22;17497;51.476;7.770;2024-03-07T05:05:09;2.80;99.90
30764;DHT22;17497;51.476;7.770;2024-03-07T05:07:35;2.70;99.90
30764;DHT22;17497;51.476;7.770;2024-03-07T05:10:03;2.70;99.90
30764;DHT22;17497;51.476;7.770;2024-03-07T05:12:31;2.70;99.90
30764;DHT22;17497;51.476;7.770;2024-03-07T05:14:57;2.70;99.90
30764;DHT22;17497;51.476;7.770;2024-03-07T05:17:24;2.70;99.90
30764;DHT22;17497;51.476;7.770;2024-03-07T05:19:51;2.70;99.90
30764;DHT22;17497;51.476;7.770;2024-03-07T05:22:17;2.60;99.90
30764;DHT22;17497;51.476;7.770;2024-03-07T05:24:46;2.60;99.90
30764;DHT22;17497;51.476;7.770;2024-03-07T05:27:14;2.50;99.90
30764;DHT22;17497;51.476;7.770;2024-03-07T05:29:41;2.50;99.90
30764;DHT22;17497;51.476;7.770;2024-03-07T05:32:21;2.50;99.90
30764;DHT22;17497;51.476;7.770;2024-03-07T05:34:49;2.50;99.90
30764;DHT22;17497;51.476;7.770;2024-03-07T05:37:16;2.50;99.90
30764;DHT22;17497;51.476;7.770;2024-03-07T05:39:42;2.50;99.90
30764;DHT22;17497;51.476;7.770;2024-03-07T05:42:09;2.50;99.90
30764;DHT22;17497;51.476;7.770;2024-03-07T05:44:44;2.50;99.90
30764;DHT22;17497;51.476;7.770;2024-03-07T05:47:11;2.40;99.90
30764;DHT22;17497;51.476;7.770;2024-03-07T05:49:40;2.40;99.90
30764;DHT22;17497;51.476;7.770;2024-03-07T05:52:06;2.40;99.90
30764;DHT22;17497;51.476;7.770;2024-03-07T05:54:33;2.30;99.90
30764;DHT22;17497;51.476;7.770;2024-03-07T05:57:00;2.30;99.90
30764;DHT22;17497;51.476;7.770;2024-03-07T05:59:27;2.20;99.90
30764;DHT22;17497;51.476;7.770;2024-03-07T06:01:58;2.20;99.90
30764;DHT22;17497;51.476;7.770;2024-03-07T06:04:25;2.20;99.90
30764;DHT22;17497;51.476;7.770;2024-03-07T06:06:51;2.20;99.90
30764;DHT22;17497;51.476;7.770;2024-03-07T06:09:18;2.20;99.90
30764;DHT22;17497;51.476;7.770;2024-03-07T06:11:48;2.20;99.90
30764;DHT22;17497;51.476;7.770;2024-03-07T06:14:15;2.20;99.90
30764;DHT22;17497;51.476;7.770;2024-03-07T06:16:42;2.20;99.90
30764;DHT22;17497;51.476;7.770;2024-03-07T06:19:09;2.30;99.90
30764;DHT22;17497;51.476;7.770;2024-03-07T06:21:37;2.30;99.90
30764;DHT22;17497;51.476;7.770;2024-03-07T06:24:05;2.20;99.90
30764;DHT22;17497;51.476;7.770;2024-03-07T06:26:35;2.20;99.90
30764;DHT22;17497;51.476;7.770;2024-03-07T06:29:11;2.20;99.90
30764;DHT22;17497;51.476;7.770;2024-03-07T06:31:38;2.20;99.90
30764;DHT22;17497;51.476;7.770;2024-03-07T06:34:05;2.20;99.90
30764;DHT22;17497;51.476;7.770;2024-03-07T06:36:33;2.10;99.90
30764;DHT22;17497;51.476;7.770;2024-03-07T06:38:59;2.10;99.90
30764;DHT22;17497;51.476;7.770;2024-03-07T06:41:26;2.10;99.90
30764;DHT22;17497;51.476;7.770;2024-03-07T06:43:53;2.10;99.90
30764;DHT22;17497;51.476;7.770;2024-03-07T06:46:21;2.10;99.90
30764;DHT22;17497;51.476;7.770;2024-03-07T06:48:48;2.10;99.90
30764;DHT22;17497;51.476;7.770;2024-03-07T06:51:15;2.10;99.90
30764;DHT22;17497;51.476;7.770;2024-03-07T06:53:44;2.20;99.90
30764;DHT22;17497;51.476;7.770;2024-03-07T06:56:13;2.20;99.90
30764;DHT22;17497;51.476;7.770;2024-03-07T06:58:40;2.20;99.90
30764;DHT22;17497;51.476;7.770;2024-03-07T07:01:07;2.20;99.90
30764;DHT22;17497;51.476;7.770;2024-03-07T07:03:36;2.30;99.90
30764;DHT22;17497;51.476;7.770;2024-03-07T07:06:03;2.30;99.90
30764;DHT22;17497;51.476;7.770;2024-03-07T07:08:32;2.40;99.90
30764;DHT22;17497;51.476;7.770;2024-03-07T07:10:59;2.50;99.90
30764;DHT22;17497;51.476;7.770;2024-03-07T07:13:26;2.60;99.90
30764;DHT22;17497;51.476;7.770;2024-03-07T07:15:52;2.80;99.90
30764;DHT22;17497;51.476;7.770;2024-03-07T07:18:20;2.90;99.90
30764;DHT22;17497;51.476;7.770;2024-03-07T07:20:48;3.00;99.90
30764;DHT22;17497;51.476;7.770;2024-03-07T07:23:15;3.00;99.90
30764;DHT22;17497;51.476;7.770;2024-03-07T07:25:42;3.00;99.90
30764;DHT22;17497;51.476;7.770;2024-03-07T07:28:09;3.00;99.90
30764;DHT22;17497;51.476;7.770;2024-03-07T07:30:37;3.00;99.90
30764;DHT22;17497;51.476;7.770;2024-03-07T07:33:05;2.90;99.90
30764;DHT22;17497;51.476;7.770;2024-03-07T07:35:32;2.90;99.90
30764;DHT22;17497;51.476;7.770;2024-03-07T07:38:01;2.90;99.90
30764;DHT22;17497;51.476;7.770;2024-03-07T07:40:27;2.90;99.90
30764;DHT22;17497;51.476;7.770;2024-03-07T07:42:55;2.90;99.90
30764;DHT22;17497;51.476;7.770;2024-03-07T07:45:22;2.90;99.90
30764;DHT22;17497;51.476;7.770;2024-03-07T07:47:50;3.00;99.90
30764;DHT22;17497;51.476;7.770;2024-03-07T07:50:20;3.20;99.90
30764;DHT22;17497;51.476;7.770;2024-03-07T07:52:48;3.30;99.90
30764;DHT22;17497;51.476;7.770;2024-03-07T07:55:25;3.40;99.90
30764;DHT22;17497;51.476;7.770;2024-03-07T07:57:53;3.60;99.90
30764;DHT22;17497;51.476;7.770;2024-03-07T08:00:21;3.70;99.90
30764;DHT22;17497;51.476;7.770;2024-03-07T08:02:50;3.80;99.90
30764;DHT22;17497;51.476;7.770;2024-03-07T08:05:21;4.00;99.90
30764;DHT22;17497;51.476;7.770;2024-03-07T08:07:50;4.10;99.90
30764;DHT22;17497;51.476;7.770;2024-03-07T08:10:21;4.20;99.90
30764;DHT22;17497;51.476;7.770;2024-03-07T08:12:49;4.30;99.90
30764;DHT22;17497;51.476;7.770;2024-03-07T08:15:17;4.40;99.90
30764;DHT22;17497;51.476;7.770;2024-03-07T08:17:58;4.40;99.90
30764;DHT22;17497;51.476;7.770;2024-03-07T08:20:26;4.50;99.90
30764;DHT22;17497;51.476;7.770;2024-03-07T08:22:53;4.60;99.90
30764;DHT22;17497;51.476;7.770;2024-03-07T08:25:22;4.70;99.90
30764;DHT22;17497;51.476;7.770;2024-03-07T08:27:51;4.80;99.90
30764;DHT22;17497;51.476;7.770;2024-03-07T08:30:17;4.90;99.90
30764;DHT22;17497;51.476;7.770;2024-03-07T08:32:45;5.00;99.90
30764;DHT22;17497;51.476;7.770;2024-03-07T08:35:12;5.00;99.90
30764;DHT22;17497;51.476;7.770;2024-03-07T08:37:39;5.20;99.90
30764;DHT22;17497;51.476;7.770;2024-03-07T08:40:06;5.20;99.90
30764;DHT22;17497;51.476;7.770;2024-03-07T08:42:33;5.30;99.90
30764;DHT22;17497;51.476;7.770;2024-03-07T08:45:01;5.40;99.90
30764;DHT22;17497;51.476;7.770;2024-03-07T08:47:31;5.40;99.90
30764;DHT22;17497;51.476;7.770;2024-03-07T08:49:58;5.40;99.90
30764;DHT22;17497;51.476;7.770;2024-03-07T08:52:25;5.40;99.90
30764;DHT22;17497;51.476;7.770;2024-03-07T08:54:52;5.40;99.90
30764;DHT22;17497;51.476;7.770;2024-03-07T08:57:19;5.40;99.90
30764;DHT22;17497;51.476;7.770;2024-03-07T08:59:48;5.50;99.90
30764;DHT22;17497;51.476;7.770;2024-03-07T09:02:15;5.60;99.90
30764;DHT22;17497;51.476;7.770;2024-03-07T09:04:42;5.60;99.90
30764;DHT22;17497;51.476;7.770;2024-03-07T09:07:09;5.60;99.90
30764;DHT22;17497;51.476;7.770;2024-03-07T09:09:36;5.50;99.90
30764;DHT22;17497;51.476;7.770;2024-03-07T09:12:03;5.50;99.90
30764;DHT22;17497;51.476;7.770;2024-03-07T09:14:30;5.50;99.90
30764;DHT22;17497;51.476;7.770;2024-03-07T09:16:57;5.40;99.90
30764;DHT22;17497;51.476;7.770;2024-03-07T09:19:23;5.40;99.90
30764;DHT22;17497;51.476;7.770;2024-03-07T09:21:51;5.50;99.90
30764;DHT22;17497;51.476;7.770;2024-03-07T09:24:18;5.50;99.90
30764;DHT22;17497;51.476;7.770;2024-03-07T09:26:48;5.60;99.90
30764;DHT22;17497;51.476;7.770;2024-03-07T09:29:19;5.60;99.90
30764;DHT22;17497;51.476;7.770;2024-03-07T09:31:45;5.60;99.90
30764;DHT22;17497;51.476;7.770;2024-03-07T09:34:13;5.70;99.90
30764;DHT22;17497;51.476;7.770;2024-03-07T09:36:41;5.80;99.90
30764;DHT22;17497;51.476;7.770;2024-03-07T09:39:08;6.00;99.90
30764;DHT22;17497;51.476;7.770;2024-03-07T09:41:35;6.10;99.90
30764;DHT22;17497;51.476;7.770;2024-03-07T09:44:03;6.30;99.90
30764;DHT22;17497;51.476;7.770;2024-03-07T09:46:30;6.50;99.90
30764;DHT22;17497;51.476;7.770;2024-03-07T09:49:00;6.70;99.90
30764;DHT22;17497;51.476;7.770;2024-03-07T09:51:27;6.80;99.90
30764;DHT22;17497;51.476;7.770;2024-03-07T09:53:54;6.70;99.90
30764;DHT22;17497;51.476;7.770;2024-03-07T09:56:23;6.70;99.90
30764;DHT22;17497;51.476;7.770;2024-03-07T09:58:51;6.80;99.90
30764;DHT22;17497;51.476;7.770;2024-03-07T10:01:21;7.10;99.90
30764;DHT22;17497;51.476;7.770;2024-03-07T10:03:48;7.20;99.90
30764;DHT22;17497;51.476;7.770;2024-03-07T10:06:15;7.40;99.90
30764;DHT22;17497;51.476;7.770;2024-03-07T10:08:42;7.40;99.90
30764;DHT22;17497;51.476;7.770;2024-03-07T10:11:10;7.50;99.90
30764;DHT22;17497;51.476;7.770;2024-03-07T10:13:36;7.60;99.90
30764;DHT22;17497;51.476;7.770;2024-03-07T10:16:03;7.70;99.90
30764;DHT22;17497;51.476;7.770;2024-03-07T10:18:31;7.80;99.90
30764;DHT22;17497;51.476;7.770;2024-03-07T10:20:58;8.00;99.90
30764;DHT22;17497;51.476;7.770;2024-03-07T10:23:26;8.10;99.90
30764;DHT22;17497;51.476;7.770;2024-03-07T10:25:53;8.10;99.90
30764;DHT22;17497;51.476;7.770;2024-03-07T10:28:21;8.20;99.90
30764;DHT22;17497;51.476;7.770;2024-03-07T10:30:48;8.60;99.90
30764;DHT22;17497;51.476;7.770;2024-03-07T10:33:17;9.20;99.90
30764;DHT22;17497;51.476;7.770;2024-03-07T10:35:47;9.90;99.90
30764;DHT22;17497;51.476;7.770;2024-03-07T10:38:15;10.20;99.90
30764;DHT22;17497;51.476;7.770;2024-03-07T10:40:47;10.70;99.90
30764;DHT22;17497;51.476;7.770;2024-03-07T10:43:14;10.70;99.90
30764;DHT22;17497;51.476;7.770;2024-03-07T10:45:43;10.60;99.90
30764;DHT22;17497;51.476;7.770;2024-03-07T10:48:12;11.00;99.90
30764;DHT22;17497;51.476;7.770;2024-03-07T10:53:24;11.50;99.90
30764;DHT22;17497;51.476;7.770;2024-03-07T10:58:46;11.80;99.90
30764;DHT22;17497;51.476;7.770;2024-03-07T11:01:14;11.80;99.90
30764;DHT22;17497;51.476;7.770;2024-03-07T11:03:43;11.50;99.90
30764;DHT22;17497;51.476;7.770;2024-03-07T11:06:10;11.40;99.90
30764;DHT22;17497;51.476;7.770;2024-03-07T11:08:38;11.10;99.90
30764;DHT22;17497;51.476;7.770;2024-03-07T11:11:05;10.70;99.90
30764;DHT22;17497;51.476;7.770;2024-03-07T11:13:33;10.60;99.90
30764;DHT22;17497;51.476;7.770;2024-03-07T11:16:00;10.40;99.90
30764;DHT22;17497;51.476;7.770;2024-03-07T11:18:27;10.70;99.90
30764;DHT22;17497;51.476;7.770;2024-03-07T11:20:54;10.90;99.90
30764;DHT22;17497;51.476;7.770;2024-03-07T11:23:27;11.60;99.90
30764;DHT22;17497;51.476;7.770;2024-03-07T11:26:02;12.40;99.90
30764;DHT22;17497;51.476;7.770;2024-03-07T11:28:31;13.30;99.90
30764;DHT22;17497;51.476;7.770;2024-03-07T11:34:13;13.30;99.90
30764;DHT22;17497;51.476;7.770;2024-03-07T11:36:45;13.00;99.90
30764;DHT22;17497;51.476;7.770;2024-03-07T11:42:02;11.70;99.90
30764;DHT22;17497;51.476;7.770;2024-03-07T11:44:29;11.00;99.90
30764;DHT22;17497;51.476;7.770;2024-03-07T11:46:56;10.50;99.90
30764;DHT22;17497;51.476;7.770;2024-03-07T11:49:24;10.10;99.90
30764;DHT22;17497;51.476;7.770;2024-03-07T11:51:51;9.80;99.90
30764;DHT22;17497;51.476;7.770;2024-03-07T11:54:17;9.60;99.90
30764;DHT22;17497;51.476;7.770;2024-03-07T11:56:51;9.50;99.90
30764;DHT22;17497;51.476;7.770;2024-03-07T11:59:18;9.30;99.90
30764;DHT22;17497;51.476;7.770;2024-03-07T12:01:44;9.20;99.90
30764;DHT22;17497;51.476;7.770;2024-03-07T12:04:11;9.10;99.90
30764;DHT22;17497;51.476;7.770;2024-03-07T12:06:50;9.00;99.90
30764;DHT22;17497;51.476;7.770;2024-03-07T12:09:16;9.00;99.90
30764;DHT22;17497;51.476;7.770;2024-03-07T12:11:50;8.80;99.90
30764;DHT22;17497;51.476;7.770;2024-03-07T12:14:19;8.80;99.90
30764;DHT22;17497;51.476;7.770;2024-03-07T12:16:46;8.70;99.90
30764;DHT22;17497;51.476;7.770;2024-03-07T12:19:12;8.70;99.90
30764;DHT22;17497;51.476;7.770;2024-03-07T12:21:41;8.70;99.90
30764;DHT22;17497;51.476;7.770;2024-03-07T12:24:11;8.80;99.90
30764;DHT22;17497;51.476;7.770;2024-03-07T12:26:38;8.70;99.90
30764;DHT22;17497;51.476;7.770;2024-03-07T12:29:08;8.80;99.90
30764;DHT22;17497;51.476;7.770;2024-03-07T12:31:44;8.80;99.90
30764;DHT22;17497;51.476;7.770;2024-03-07T12:34:10;8.90;99.90
30764;DHT22;17497;51.476;7.770;2024-03-07T12:36:37;9.00;99.90
30764;DHT22;17497;51.476;7.770;2024-03-07T12:39:23;9.30;99.90
30764;DHT22;17497;51.476;7.770;2024-03-07T12:41:58;9.50;99.90
30764;DHT22;17497;51.476;7.770;2024-03-07T12:44:25;9.60;99.90
30764;DHT22;17497;51.476;7.770;2024-03-07T12:46:51;10.10;99.90
30764;DHT22;17497;51.476;7.770;2024-03-07T12:49:22;10.90;99.90
30764;DHT22;17497;51.476;7.770;2024-03-07T12:51:56;11.80;99.90
30764;DHT22;17497;51.476;7.770;2024-03-07T12:54:26;12.70;99.90
30764;DHT22;17497;51.476;7.770;2024-03-07T12:56:53;14.00;99.90
30764;DHT22;17497;51.476;7.770;2024-03-07T12:59:20;15.40;99.90
30764;DHT22;17497;51.476;7.770;2024-03-07T13:01:50;16.30;99.90
30764;DHT22;17497;51.476;7.770;2024-03-07T13:04:17;16.80;99.90
30764;DHT22;17497;51.476;7.770;2024-03-07T13:06:43;16.70;99.90
30764;DHT22;17497;51.476;7.770;2024-03-07T13:09:12;16.40;99.90
30764;DHT22;17497;51.476;7.770;2024-03-07T13:11:40;15.80;99.90
30764;DHT22;17497;51.476;7.770;2024-03-07T13:14:14;15.60;99.90
30764;DHT22;17497;51.476;7.770;2024-03-07T13:16:40;15.30;99.90
30764;DHT22;17497;51.476;7.770;2024-03-07T13:19:09;14.80;99.90
30764;DHT22;17497;51.476;7.770;2024-03-07T13:21:38;14.20;99.90
30764;DHT22;17497;51.476;7.770;2024-03-07T13:24:06;13.60;99.90
30764;DHT22;17497;51.476;7.770;2024-03-07T13:26:35;13.10;99.90
30764;DHT22;17497;51.476;7.770;2024-03-07T13:29:03;12.70;99.90
30764;DHT22;17497;51.476;7.770;2024-03-07T13:31:29;12.40;99.90
30764;DHT22;17497;51.476;7.770;2024-03-07T13:33:56;12.10;99.90
30764;DHT22;17497;51.476;7.770;2024-03-07T13:36:23;11.50;99.90
30764;DHT22;17497;51.476;7.770;2024-03-07T13:38:51;11.30;99.90
30764;DHT22;17497;51.476;7.770;2024-03-07T13:41:19;11.10;99.90
30764;DHT22;17497;51.476;7.770;2024-03-07T13:43:47;10.90;99.90
30764;DHT22;17497;51.476;7.770;2024-03-07T13:46:14;10.90;99.90
30764;DHT22;17497;51.476;7.770;2024-03-07T13:48:41;10.90;99.90
30764;DHT22;17497;51.476;7.770;2024-03-07T13:51:11;10.90;99.90
30764;DHT22;17497;51.476;7.770;2024-03-07T13:53:41;10.90;99.90
30764;DHT22;17497;51.476;7.770;2024-03-07T14:04:23;10.80;99.90
30764;DHT22;17497;51.476;7.770;2024-03-07T14:07:03;11.00;99.90
30764;DHT22;17497;51.476;7.770;2024-03-07T14:09:43;11.30;99.90
30764;DHT22;17497;51.476;7.770;2024-03-07T14:18:01;11.50;99.90
30764;DHT22;17497;51.476;7.770;2024-03-07T14:23:34;10.80;99.90
30764;DHT22;17497;51.476;7.770;2024-03-07T14:26:33;10.30;99.90
30764;DHT22;17497;51.476;7.770;2024-03-07T14:31:30;9.60;99.90
30764;DHT22;17497;51.476;7.770;2024-03-07T14:39:11;9.50;99.90
30764;DHT22;17497;51.476;7.770;2024-03-07T14:41:46;9.40;99.90
30764;DHT22;17497;51.476;7.770;2024-03-07T14:44:14;9.40;99.90
30764;DHT22;17497;51.476;7.770;2024-03-07T14:46:42;9.30;99.90
30764;DHT22;17497;51.476;7.770;2024-03-07T14:49:13;9.20;99.90
30764;DHT22;17497;51.476;7.770;2024-03-07T14:51:42;9.30;99.90
30764;DHT22;17497;51.476;7.770;2024-03-07T14:54:17;9.20;99.90
30764;DHT22;17497;51.476;7.770;2024-03-07T14:56:43;9.30;99.90
30764;DHT22;17497;51.476;7.770;2024-03-07T14:59:10;9.30;99.90
30764;DHT22;17497;51.476;7.770;2024-03-07T15:01:39;9.50;99.90
30764;DHT22;17497;51.476;7.770;2024-03-07T15:04:05;9.60;99.90
30764;DHT22;17497;51.476;7.770;2024-03-07T15:06:33;9.70;99.90
30764;DHT22;17497;51.476;7.770;2024-03-07T15:09:01;9.70;99.90
30764;DHT22;17497;51.476;7.770;2024-03-07T15:13:54;9.60;99.90
30764;DHT22;17497;51.476;7.770;2024-03-07T15:16:21;9.70;99.90
30764;DHT22;17497;51.476;7.770;2024-03-07T15:18:58;9.90;99.90
30764;DHT22;17497;51.476;7.770;2024-03-07T15:21:24;10.00;99.90
30764;DHT22;17497;51.476;7.770;2024-03-07T15:23:53;10.00;99.90
30764;DHT22;17497;51.476;7.770;2024-03-07T15:26:20;9.80;99.90
30764;DHT22;17497;51.476;7.770;2024-03-07T15:28:50;9.80;99.90
30764;DHT22;17497;51.476;7.770;2024-03-07T15:31:18;9.80;99.90
30764;DHT22;17497;51.476;7.770;2024-03-07T15:33:48;10.10;99.90
30764;DHT22;17497;51.476;7.770;2024-03-07T15:36:17;10.80;99.90
30764;DHT22;17497;51.476;7.770;2024-03-07T15:38:44;11.70;99.90
30764;DHT22;17497;51.476;7.770;2024-03-07T15:41:11;12.40;99.90
30764;DHT22;17497;51.476;7.770;2024-03-07T15:43:39;13.00;99.90
30764;DHT22;17497;51.476;7.770;2024-03-07T15:46:07;13.40;99.90
30764;DHT22;17497;51.476;7.770;2024-03-07T15:48:34;13.40;99.90
30764;DHT22;17497;51.476;7.770;2024-03-07T15:51:02;13.00;99.90
30764;DHT22;17497;51.476;7.770;2024-03-07T15:53:30;12.90;99.90
30764;DHT22;17497;51.476;7.770;2024-03-07T15:56:00;12.60;99.90
30764;DHT22;17497;51.476;7.770;2024-03-07T15:58:27;12.40;99.90
30764;DHT22;17497;51.476;7.770;2024-03-07T16:00:54;12.30;99.90
30764;DHT22;17497;51.476;7.770;2024-03-07T16:03:22;12.30;99.90
30764;DHT22;17497;51.476;7.770;2024-03-07T16:05:49;12.30;99.90
30764;DHT22;17497;51.476;7.770;2024-03-07T16:08:16;12.10;99.90
30764;DHT22;17497;51.476;7.770;2024-03-07T16:10:45;11.90;99.90
30764;DHT22;17497;51.476;7.770;2024-03-07T16:13:12;11.60;99.90
30764;DHT22;17497;51.476;7.770;2024-03-07T16:15:41;11.30;99.90
30764;DHT22;17497;51.476;7.770;2024-03-07T16:18:09;10.80;99.90
30764;DHT22;17497;51.476;7.770;2024-03-07T16:20:37;10.50;99.90
30764;DHT22;17497;51.476;7.770;2024-03-07T16:23:04;10.20;99.90
30764;DHT22;17497;51.476;7.770;2024-03-07T16:25:32;10.00;99.90